weekend O'PICARDIE Compiègne (60) - B

Date : 21/11/2015
Distance : 2,550 km

Place Nom Licence Catégorie Club Temps min/km CN à J-60 Points Différence Nouveau CN
1 LECENDRE Olivier 20440 H40 6205NO 0:16:38 6'31 5758 6087 +329 5758
2 BESTEL Arnault 17308 H16 9105IF 0:17:02 6'40 5687 5944 +257 5961
3 MARTIN Pascal 25117 H45 5402LO 0:17:46 6'58 5651 5698 +47 5693
4 GAUQUELIN Jerome 19023 H40 9404IF 0:17:51 7'00 4860 5672 +812 4899
5 BECUWE Yannick 28966 H40 5909NO 0:18:25 7'13 4746 5497 +751 5161
6 DUPOUY Daniel 14901 H45 7807IF 0:19:00 7'27 5328 5072
7 DELCUSE Vincent 27703 H40 6205NO 0:19:04 7'28 5272 5310 +38 5394
8 FOL Loreline 16393 D18 3105MP 0:19:05 7'29 5354 5305 -49 5535
9 FINAS Celine 8445 D21 5907NO 0:19:16 7'33 5553 5255 -298 5528
10 DESSAILLY David 26053 H40 5909NO 0:19:20 7'34 4987 5237 +250 5063
11 URVOY Martial 23615 H40 6203NO 0:19:33 7'40 5314 5179 -135 5198
12 VILLAR Aurélie 18133 D21 6008PI 0:20:07 7'53 5118 5033 -85 5093
13 MERCIER Agnès 23079 D21 5907NO 0:20:19 7'58 5385 4983 -402 5359
14 CHARDOT Julia 19345 D21 7807IF 0:20:36 8'04 5100 4915 -185 5115
15 GENCE Eric 16399 H45 6205NO 0:21:13 8'19 5448 4772 -676 5359
16 FONTAINE Helise 22962 D21 5907NO 0:21:48 8'32 4978 4644 -334 4960
17 RAU Hervé 25624 H40 5909NO 0:21:53 8'34 4530 4626 +96 4554
18 TRONCHON Eric 31787 H40 6008PI 0:22:40 8'53 4466 0
19 LAVALLEE Patrice 26387 H45 6008PI 0:22:48 8'56 4528 4440 -88 4523
20 HERLEZ Natan 23830 H18 5909NO 0:23:08 9'04 3116 4376 +1260 3154
21 TEYSSEDRE Marie 26727 D21 5907NO 0:23:11 9'05 3791 4367 +576 4052
22 DEHAINE Julian 31456 H18 6008PI 0:24:04 9'26 0 4207 3550
23 ARROQUI Philippe 22651 H45 5909NO 0:24:18 9'31 3902 4166 +264 4085
24 VERCAUTEREN Francois 16227 H45 6008PI 0:25:40 10'03 4590 3944 -646 4590
25 ARROQUI Mathilde 23425 D21 5909NO 0:27:53 10'56 3559 3631 +72 3603
26 GALLAIS Sophie 29498 D21 5116CA 0:28:20 11'06 3426 3573 +147 3527
27 CHOPIN Olivier 29939 H40 6203NO 0:29:47 11'40 3152 3399 +247 3179
28 SALINGUE VINCENT 31238 H40 6203NO 0:30:25 11'55 2134 3328 +1194 2407
29 LE GRANCHE Vincent 31869 H40 6008PI 0:32:52 12'53 3080 0
30 VITTU AURELIE 32210 D21 6203NO 0:33:48 13'15 2995 0
31 JACQUEMART Marina 28528 D21 5909NO 0:34:58 13'42 2586 2895 +309 2687
32 PERETTI Serge 29320 H45 6203NO 0:48:41 19'05 1637 2080 +443 1748
nc RETION Silvain 30324 H40 1905LI abandon None